Time;durP1;ratioP1;P1;durP2;ratioP2;P2;SDS_P1;SDS_P2;PMS_P1;PMS_P2;Temp;Humidity;BMP_temperature;BMP_pressure;BME280_temperature;BME280_humidity;BME280_pressure;Samples;Min_cycle;Max_cycle;Signal;HPM_P1;HPM_P2
2022/06/20 00:00:27;;;;;;;5.45;2.33;;;16.30;99.90;;;;;;4996190;28;20196;-90
2022/06/20 00:03:00;;;;;;;4.82;2.10;;;16.30;99.90;;;;;;4996180;28;20218;-91
2022/06/20 00:05:36;;;;;;;3.78;2.00;;;16.50;99.90;;;;;;4996402;28;20223;-89
2022/06/20 00:08:03;;;;;;;3.80;2.08;;;16.60;99.90;;;;;;4996388;28;20171;-90
2022/06/20 00:10:30;;;;;;;4.20;2.20;;;16.60;99.90;;;;;;4996037;28;20172;-91
2022/06/20 00:12:57;;;;;;;3.63;2.08;;;16.60;99.90;;;;;;4995856;28;20199;-89
2022/06/20 00:15:31;;;;;;;4.30;2.33;;;16.50;99.90;;;;;;4995817;28;20296;-89
2022/06/20 00:17:58;;;;;;;4.13;2.33;;;16.40;99.90;;;;;;4995776;28;20168;-91
2022/06/20 00:20:25;;;;;;;4.03;2.72;;;16.30;99.90;;;;;;4995784;28;20640;-91
2022/06/20 00:22:51;;;;;;;3.58;2.20;;;16.30;99.90;;;;;;4995726;28;20196;-90
2022/06/20 00:25:17;;;;;;;3.92;2.25;;;16.30;99.90;;;;;;4995567;28;20195;-90
2022/06/20 00:27:44;;;;;;;9.70;2.60;;;16.30;99.90;;;;;;4995462;28;20659;-89
2022/06/20 00:30:13;;;;;;;10.25;3.55;;;16.30;99.90;;;;;;4995150;28;20255;-90
2022/06/20 00:32:39;;;;;;;8.15;2.35;;;16.40;99.90;;;;;;4995586;28;20176;-91
2022/06/20 00:35:05;;;;;;;9.30;2.78;;;16.40;99.90;;;;;;4995491;28;20200;-89
2022/06/20 00:37:31;;;;;;;6.72;2.40;;;16.30;99.90;;;;;;4995320;28;20211;-90
2022/06/20 00:39:57;;;;;;;6.05;2.65;;;16.10;99.90;;;;;;4995367;28;20172;-92
2022/06/20 00:42:24;;;;;;;5.22;2.60;;;15.90;99.90;;;;;;4995389;28;20192;-91
2022/06/20 00:45:04;;;;;;;5.35;2.72;;;15.80;99.90;;;;;;4995470;28;20714;-89
2022/06/20 00:47:33;;;;;;;5.28;2.17;;;15.80;99.90;;;;;;4994300;28;20219;-92
2022/06/20 00:50:19;;;;;;;7.53;2.67;;;15.80;99.90;;;;;;4995512;28;20176;-91
2022/06/20 00:52:59;;;;;;;7.30;2.85;;;15.80;99.90;;;;;;4995219;28;20172;-89
2022/06/20 00:55:31;;;;;;;5.72;3.00;;;15.70;99.90;;;;;;4995277;28;20757;-90
2022/06/20 00:58:17;;;;;;;7.20;2.97;;;15.70;99.90;;;;;;4995080;28;20223;-88
2022/06/20 01:00:44;;;;;;;7.13;2.80;;;15.70;99.90;;;;;;4994403;28;20190;-88
2022/06/20 01:03:14;;;;;;;5.70;2.97;;;15.60;99.90;;;;;;4994852;28;20192;-89
2022/06/20 01:05:51;;;;;;;7.30;3.00;;;15.70;99.90;;;;;;4995198;28;20619;-90
2022/06/20 01:08:27;;;;;;;8.23;2.80;;;15.80;99.90;;;;;;4994725;28;20167;-91
2022/06/20 01:11:00;;;;;;;5.88;2.83;;;15.90;99.90;;;;;;4994829;28;20179;-88
2022/06/20 01:13:26;;;;;;;4.82;2.85;;;16.00;99.90;;;;;;4994700;28;20271;-89
2022/06/20 01:15:57;;;;;;;4.35;2.85;;;16.00;99.90;;;;;;4994741;28;20563;-89
2022/06/20 01:18:30;;;;;;;5.15;2.70;;;16.00;99.90;;;;;;4994679;28;20179;-88
2022/06/20 01:20:57;;;;;;;4.75;2.75;;;16.00;99.90;;;;;;4994684;28;20200;-89
2022/06/20 01:24:02;;;;;;;5.82;2.75;;;16.10;99.90;;;;;;4994586;28;20168;-87
2022/06/20 01:27:03;;;;;;;6.50;2.55;;;16.10;99.90;;;;;;4987046;28;20227;-89
2022/06/20 01:29:29;;;;;;;5.13;2.83;;;16.00;99.90;;;;;;5010805;28;20164;-90
2022/06/20 01:31:56;;;;;;;5.22;2.58;;;16.00;99.90;;;;;;4994303;28;20180;-89
2022/06/20 01:34:22;;;;;;;5.90;3.28;;;16.10;99.90;;;;;;4994477;28;20640;-90
2022/06/20 01:39:46;;;;;;;7.18;2.75;;;16.20;99.90;;;;;;4995766;28;20264;-91
2022/06/20 01:42:19;;;;;;;7.28;3.08;;;16.20;99.90;;;;;;4994648;28;20196;-91
2022/06/20 01:48:07;;;;;;;5.53;3.13;;;15.80;99.90;;;;;;4995736;28;20195;-91
2022/06/20 01:50:34;;;;;;;5.85;2.97;;;15.70;99.90;;;;;;4994387;28;20255;-91
2022/06/20 01:53:04;;;;;;;6.93;3.65;;;15.70;99.90;;;;;;4994278;28;20267;-89
2022/06/20 01:55:33;;;;;;;4.53;3.25;;;15.70;99.90;;;;;;4977694;28;20235;-91
2022/06/20 01:58:29;;;;;;;5.88;3.50;;;15.60;99.90;;;;;;4993516;28;20164;-89
2022/06/20 02:00:59;;;;;;;6.18;3.30;;;15.60;99.90;;;;;;4992853;28;20200;-91
2022/06/20 02:03:25;;;;;;;3.78;3.00;;;15.60;99.90;;;;;;4994019;28;20164;-91
2022/06/20 02:05:55;;;;;;;4.10;3.13;;;15.60;99.90;;;;;;4993846;28;20191;-89
2022/06/20 02:08:23;;;;;;;5.30;3.17;;;15.60;99.90;;;;;;4993898;28;20168;-89
2022/06/20 02:10:59;;;;;;;16.50;3.65;;;15.50;99.90;;;;;;4993765;28;20650;-89
2022/06/20 02:13:28;;;;;;;5.30;3.50;;;15.40;99.90;;;;;;4993667;28;20168;-90
2022/06/20 02:15:59;;;;;;;6.65;3.40;;;15.40;99.90;;;;;;4993683;28;20223;-90
2022/06/20 02:18:29;;;;;;;6.15;3.40;;;15.40;99.90;;;;;;4993633;28;20176;-90
2022/06/20 02:21:02;;;;;;;4.30;3.38;;;15.40;99.90;;;;;;4993665;28;20172;-90
2022/06/20 02:23:32;;;;;;;5.88;3.58;;;15.40;99.90;;;;;;4993753;28;20165;-90
2022/06/20 02:26:01;;;;;;;4.55;3.40;;;15.30;99.90;;;;;;4993576;28;20230;-90
2022/06/20 02:28:35;;;;;;;6.30;3.25;;;15.30;99.90;;;;;;4993374;28;20195;-88
2022/06/20 02:31:03;;;;;;;7.07;3.55;;;15.30;99.90;;;;;;4993837;28;20171;-89
2022/06/20 02:33:30;;;;;;;6.55;3.55;;;15.30;99.90;;;;;;4993530;28;20262;-89
2022/06/20 02:35:58;;;;;;;7.57;3.85;;;15.30;99.90;;;;;;4993500;28;20211;-90
2022/06/20 02:38:24;;;;;;;9.75;4.00;;;15.20;99.90;;;;;;4993512;28;20225;-91
2022/06/20 02:40:55;;;;;;;5.95;3.95;;;15.20;99.90;;;;;;4993309;28;20254;-89
2022/06/20 02:43:25;;;;;;;5.85;3.92;;;15.20;99.90;;;;;;4993500;28;20183;-90
2022/06/20 02:45:53;;;;;;;6.45;4.05;;;15.20;99.90;;;;;;4992860;28;20230;-89
2022/06/20 02:48:21;;;;;;;7.30;3.80;;;15.30;99.90;;;;;;4993386;28;20179;-89
2022/06/20 02:50:56;;;;;;;5.55;3.85;;;15.30;99.90;;;;;;4995250;28;20246;-91
2022/06/20 02:53:41;;;;;;;5.40;4.22;;;15.30;99.90;;;;;;5282803;23;20285;-94
2022/06/20 02:56:12;;;;;;;9.27;3.95;;;15.10;99.90;;;;;;5029169;28;20187;-89
2022/06/20 02:58:42;;;;;;;8.60;4.43;;;15.20;99.90;;;;;;5013351;28;20179;-88
2022/06/20 03:01:23;;;;;;;7.43;4.03;;;15.10;99.90;;;;;;5013116;28;20295;-89
2022/06/20 03:03:53;;;;;;;6.72;4.30;;;14.90;99.90;;;;;;5003399;28;20187;-93
2022/06/20 03:06:31;;;;;;;6.25;4.30;;;14.90;99.90;;;;;;5013549;28;20640;-92
2022/06/20 03:08:58;;;;;;;4.22;3.50;;;14.90;99.90;;;;;;5013385;28;20687;-92
2022/06/20 03:11:26;;;;;;;6.00;3.60;;;14.90;99.90;;;;;;5017715;28;20182;-93
2022/06/20 03:13:53;;;;;;;4.82;3.78;;;15.00;99.90;;;;;;5017447;28;20643;-91
2022/06/20 03:16:21;;;;;;;6.88;3.88;;;15.10;99.90;;;;;;5017596;28;20183;-92
2022/06/20 03:18:49;;;;;;;5.32;3.30;;;15.10;99.90;;;;;;5017319;28;20183;-89
2022/06/20 03:21:19;;;;;;;6.10;3.42;;;15.20;99.90;;;;;;5018326;28;20206;-94
2022/06/20 03:23:45;;;;;;;4.53;3.70;;;15.20;99.90;;;;;;5017048;28;20209;-94
2022/06/20 03:26:22;;;;;;;7.10;3.60;;;15.30;99.90;;;;;;5017419;28;20614;-93
2022/06/20 03:28:48;;;;;;;5.63;3.50;;;15.20;99.90;;;;;;5016998;28;20534;-88
2022/06/20 03:31:15;;;;;;;8.85;3.80;;;15.10;99.90;;;;;;5017328;28;20187;-92
2022/06/20 03:33:41;;;;;;;5.82;3.83;;;15.00;99.90;;;;;;5017856;28;20179;-92
2022/06/20 03:36:15;;;;;;;4.32;3.53;;;14.90;99.90;;;;;;5017697;28;20179;-94
2022/06/20 03:38:43;;;;;;;6.32;3.65;;;14.80;99.90;;;;;;5019099;28;20198;-92
2022/06/20 03:41:11;;;;;;;5.50;3.63;;;14.80;99.90;;;;;;5018137;28;20199;-92
2022/06/20 03:43:39;;;;;;;5.95;3.58;;;14.80;99.90;;;;;;5016723;28;20184;-90
2022/06/20 03:46:15;;;;;;;6.20;3.95;;;14.80;99.90;;;;;;5016756;28;20183;-91
2022/06/20 03:48:50;;;;;;;7.28;3.30;;;14.90;99.90;;;;;;5018077;28;20174;-92
2022/06/20 03:51:21;;;;;;;8.20;4.13;;;14.80;99.90;;;;;;5017048;28;20167;-90
2022/06/20 03:54:08;;;;;;;8.68;4.57;;;14.80;99.90;;;;;;5016666;28;20238;-90
2022/06/20 03:56:48;;;;;;;7.03;4.00;;;14.70;99.90;;;;;;5017086;28;20175;-89
2022/06/20 03:59:25;;;;;;;7.80;4.22;;;14.70;99.90;;;;;;5016322;28;20621;-89
2022/06/20 04:02:03;;;;;;;9.60;4.57;;;14.80;99.90;;;;;;5017797;28;20207;-90
2022/06/20 04:04:52;;;;;;;5.35;3.88;;;14.80;99.90;;;;;;5016510;28;20178;-88
2022/06/20 04:07:28;;;;;;;8.68;5.13;;;14.80;99.90;;;;;;5016510;28;20180;-89
2022/06/20 04:13:13;;;;;;;8.45;5.18;;;14.90;99.90;;;;;;5017706;28;20185;-91
2022/06/20 04:15:49;;;;;;;5.97;5.05;;;15.00;99.90;;;;;;5016244;28;20504;-91
2022/06/20 04:18:29;;;;;;;6.65;4.80;;;14.90;99.90;;;;;;5016592;28;20601;-93
2022/06/20 04:20:58;;;;;;;8.50;5.82;;;15.00;99.90;;;;;;5015850;28;20206;-94
2022/06/20 04:23:30;;;;;;;6.68;5.35;;;15.00;99.90;;;;;;5017326;28;20213;-95
2022/06/20 04:26:10;;;;;;;6.85;4.90;;;15.00;99.90;;;;;;5017210;28;20163;-95
2022/06/20 04:29:06;;;;;;;8.02;5.50;;;15.00;99.90;;;;;;5016075;28;20233;-94
2022/06/20 04:31:55;;;;;;;8.00;5.40;;;15.00;99.90;;;;;;5008923;28;20248;-92
2022/06/20 04:34:26;;;;;;;10.43;5.13;;;15.10;99.90;;;;;;5016275;28;20171;-93
2022/06/20 04:36:59;;;;;;;7.28;5.20;;;15.00;99.90;;;;;;5016440;28;20179;-95
2022/06/20 04:39:46;;;;;;;9.60;5.63;;;14.90;99.90;;;;;;5017880;28;20251;-94
2022/06/20 04:42:36;;;;;;;7.40;6.13;;;14.80;99.90;;;;;;5016898;28;20218;-94
2022/06/20 04:45:19;;;;;;;7.57;5.57;;;14.80;99.90;;;;;;5015923;28;20172;-92
2022/06/20 04:47:54;;;;;;;7.53;5.80;;;14.70;99.90;;;;;;5017917;28;20171;-94
2022/06/20 04:50:25;;;;;;;8.23;5.97;;;14.70;99.90;;;;;;5016690;28;20675;-92
2022/06/20 04:52:53;;;;;;;8.35;6.22;;;14.70;99.90;;;;;;5016387;28;20223;-94
2022/06/20 04:55:26;;;;;;;7.53;5.60;;;14.70;99.90;;;;;;5016637;28;20175;-94
2022/06/20 04:57:55;;;;;;;7.28;6.10;;;14.50;99.90;;;;;;5016807;28;20241;-94
2022/06/20 05:00:28;;;;;;;7.25;5.93;;;14.60;99.90;;;;;;5015980;28;20190;-94
2022/06/20 05:02:56;;;;;;;7.07;5.53;;;14.60;99.90;;;;;;5015988;28;20226;-92
2022/06/20 05:05:26;;;;;;;13.63;6.68;;;14.60;99.90;;;;;;5016214;28;20210;-91
2022/06/20 05:07:53;;;;;;;7.43;6.28;;;14.60;99.90;;;;;;5016082;28;20633;-91
2022/06/20 05:10:19;;;;;;;8.18;6.50;;;14.50;99.90;;;;;;5015926;28;20214;-92
2022/06/20 05:12:50;;;;;;;10.50;6.47;;;14.50;99.90;;;;;;5015494;28;20187;-92
2022/06/20 05:15:20;;;;;;;8.82;6.93;;;14.40;99.90;;;;;;5016266;28;20544;-88
2022/06/20 05:17:48;;;;;;;8.13;6.70;;;14.40;99.90;;;;;;5015585;28;20179;-92
2022/06/20 05:20:26;;;;;;;10.45;6.85;;;14.30;99.90;;;;;;5015853;28;20191;-88
2022/06/20 05:23:01;;;;;;;10.60;7.25;;;14.30;99.90;;;;;;5015151;28;20261;-85
2022/06/20 05:25:29;;;;;;;10.15;7.22;;;14.20;99.90;;;;;;5010476;28;20202;-89
2022/06/20 05:27:59;;;;;;;8.88;7.43;;;14.10;99.90;;;;;;5020710;28;20191;-86
2022/06/20 05:30:30;;;;;;;10.55;7.25;;;14.20;99.90;;;;;;5003807;28;20274;-92
2022/06/20 05:33:20;;;;;;;11.00;7.63;;;14.20;99.90;;;;;;5014982;28;20251;-93
2022/06/20 05:35:54;;;;;;;9.32;7.50;;;14.20;99.90;;;;;;5015098;28;20183;-94
2022/06/20 05:38:36;;;;;;;10.18;7.30;;;14.20;99.90;;;;;;5015371;28;20172;-90
2022/06/20 05:41:04;;;;;;;9.50;8.23;;;14.20;99.90;;;;;;5014441;28;20494;-93
2022/06/20 05:43:30;;;;;;;7.78;6.97;;;14.10;99.90;;;;;;5015486;28;20201;-92
2022/06/20 05:46:19;;;;;;;10.63;7.40;;;14.20;99.90;;;;;;5014390;28;20183;-91
2022/06/20 05:48:50;;;;;;;10.30;7.65;;;14.20;99.90;;;;;;5013810;28;20202;-90
2022/06/20 05:51:19;;;;;;;11.38;7.40;;;14.30;99.90;;;;;;5014632;28;20183;-88
2022/06/20 05:53:53;;;;;;;11.75;8.00;;;14.40;99.90;;;;;;5014063;28;20234;-92
2022/06/20 05:56:26;;;;;;;11.50;7.80;;;14.50;99.90;;;;;;5014472;28;20237;-85
2022/06/20 05:58:54;;;;;;;10.07;7.70;;;14.50;99.90;;;;;;5014472;28;20261;-88
2022/06/20 06:01:34;;;;;;;10.68;7.85;;;14.60;99.90;;;;;;5014754;28;20207;-86
2022/06/20 06:04:20;;;;;;;10.15;7.95;;;14.70;99.90;;;;;;5015452;28;20614;-92
2022/06/20 06:07:09;;;;;;;13.45;8.48;;;14.80;99.90;;;;;;5014997;28;20613;-88
2022/06/20 06:09:54;;;;;;;13.52;7.45;;;14.80;99.90;;;;;;5013869;28;20198;-96
2022/06/20 06:12:43;;;;;;;12.15;7.93;;;14.90;99.90;;;;;;5014604;28;20186;-94
2022/06/20 06:15:24;;;;;;;10.57;7.30;;;15.00;99.90;;;;;;5015156;28;20175;-94
2022/06/20 06:17:57;;;;;;;9.77;8.00;;;15.00;99.90;;;;;;5014575;28;20614;-96
2022/06/20 06:20:26;;;;;;;11.75;7.53;;;15.00;99.90;;;;;;5015926;28;20267;-95
2022/06/20 06:22:56;;;;;;;11.38;8.77;;;15.00;99.90;;;;;;5017182;28;20214;-96
2022/06/20 06:25:24;;;;;;;12.90;8.75;;;15.00;99.90;;;;;;5011727;28;20179;-90
2022/06/20 06:27:54;;;;;;;11.85;8.13;;;15.00;99.90;;;;;;5011294;28;20187;-88
2022/06/20 06:30:25;;;;;;;12.65;8.10;;;15.00;99.90;;;;;;5014459;28;20182;-93
2022/06/20 06:33:09;;;;;;;12.80;8.93;;;14.90;99.90;;;;;;5013388;28;20621;-88
2022/06/20 06:35:38;;;;;;;13.40;8.48;;;14.90;99.90;;;;;;5015693;28;20171;-92
2022/06/20 06:38:09;;;;;;;11.27;8.48;;;14.90;99.90;;;;;;5014827;28;20514;-93
2022/06/20 06:41:03;;;;;;;9.23;7.82;;;14.90;99.90;;;;;;5016661;28;20177;-90
2022/06/20 06:43:40;;;;;;;8.50;7.47;;;15.00;99.90;;;;;;4996751;28;20195;-90
2022/06/20 06:46:16;;;;;;;11.50;8.10;;;15.00;99.90;;;;;;4996155;28;20175;-93
2022/06/20 06:48:52;;;;;;;13.98;8.25;;;15.10;99.90;;;;;;5006230;28;20181;-93
2022/06/20 06:51:27;;;;;;;11.45;8.15;;;15.10;99.90;;;;;;5016013;28;20280;-85
2022/06/20 06:54:02;;;;;;;14.20;8.05;;;15.10;99.90;;;;;;5022994;28;20237;-94
2022/06/20 06:56:42;;;;;;;13.60;7.40;;;15.10;99.90;;;;;;5025323;28;20166;-91
2022/06/20 06:59:16;;;;;;;11.00;7.90;;;15.10;99.90;;;;;;5021673;28;20168;-87
2022/06/20 07:01:47;;;;;;;12.05;7.38;;;15.20;99.90;;;;;;5009989;28;20211;-91
2022/06/20 07:04:38;;;;;;;11.07;7.10;;;15.10;99.90;;;;;;4997063;28;20187;-93
2022/06/20 07:07:27;;;;;;;11.68;7.40;;;15.10;99.90;;;;;;5005440;28;20495;-91
2022/06/20 07:09:55;;;;;;;9.65;6.88;;;15.10;99.90;;;;;;5012907;28;20171;-89
2022/06/20 07:12:27;;;;;;;11.15;6.72;;;15.10;99.90;;;;;;5013089;28;20234;-89
2022/06/20 07:15:06;;;;;;;12.55;5.93;;;15.10;99.90;;;;;;5013201;28;20186;-90
2022/06/20 07:17:38;;;;;;;10.05;5.50;;;15.20;99.90;;;;;;5013138;28;20179;-88
2022/06/20 07:20:04;;;;;;;10.23;6.05;;;15.20;99.90;;;;;;5012993;28;20175;-89
2022/06/20 07:22:30;;;;;;;12.80;5.50;;;15.20;99.90;;;;;;5012577;28;20222;-88
2022/06/20 07:24:57;;;;;;;12.18;4.47;;;15.20;99.90;;;;;;5012257;28;20183;-87
2022/06/20 07:27:30;;;;;;;6.50;4.10;;;15.20;99.90;;;;;;5012797;28;20610;-89
2022/06/20 07:30:10;;;;;;;8.20;4.40;;;15.10;99.90;;;;;;5013089;28;20183;-89
2022/06/20 07:32:58;;;;;;;10.52;4.40;;;15.20;99.90;;;;;;5012684;28;20182;-90
2022/06/20 07:35:32;;;;;;;7.18;4.18;;;15.10;99.90;;;;;;5012905;28;20626;-90
2022/06/20 07:38:24;;;;;;;5.38;3.47;;;15.20;99.90;;;;;;5012939;28;20521;-89
2022/06/20 07:41:02;;;;;;;7.15;3.90;;;15.20;99.90;;;;;;5013205;28;20179;-90
2022/06/20 07:43:29;;;;;;;8.65;4.05;;;15.20;99.90;;;;;;5012718;28;20194;-90
2022/06/20 07:45:56;;;;;;;6.90;3.38;;;15.20;99.90;;;;;;5011883;28;20254;-89
2022/06/20 07:48:34;;;;;;;10.50;3.72;;;15.20;99.90;;;;;;5013925;28;20207;-91
2022/06/20 07:51:15;;;;;;;5.32;3.05;;;15.20;99.90;;;;;;5012792;28;20171;-91
2022/06/20 07:54:07;;;;;;;6.55;3.25;;;15.10;99.90;;;;;;5013633;28;20231;-90
2022/06/20 07:56:45;;;;;;;6.90;2.90;;;15.10;99.90;;;;;;4995046;28;20215;-91
2022/06/20 07:59:43;;;;;;;6.53;2.80;;;15.10;99.90;;;;;;4998102;28;20164;-94
2022/06/20 08:02:19;;;;;;;5.63;2.60;;;15.10;99.90;;;;;;4997127;28;20199;-91
2022/06/20 08:04:49;;;;;;;6.85;3.03;;;15.10;99.90;;;;;;4996703;28;20183;-90
2022/06/20 08:07:21;;;;;;;5.43;2.58;;;15.00;99.90;;;;;;4997664;28;20168;-91
2022/06/20 08:09:58;;;;;;;7.90;2.75;;;15.00;99.90;;;;;;4996704;28;20502;-90
2022/06/20 08:12:39;;;;;;;7.32;3.08;;;15.00;99.90;;;;;;4995636;28;20179;-89
2022/06/20 08:15:14;;;;;;;6.07;3.03;;;15.00;99.90;;;;;;4997353;28;20199;-91
2022/06/20 08:17:40;;;;;;;7.60;2.70;;;15.10;99.90;;;;;;4996578;28;20219;-90
2022/06/20 08:20:41;;;;;;;5.47;2.38;;;15.10;99.90;;;;;;5003939;28;20618;-91
2022/06/20 08:23:41;;;;;;;8.90;2.58;;;15.10;99.90;;;;;;4987570;28;20281;-91
2022/06/20 08:26:17;;;;;;;7.40;3.17;;;15.00;99.90;;;;;;5011918;28;20243;-91
2022/06/20 08:28:59;;;;;;;5.32;2.60;;;15.10;99.90;;;;;;5015566;28;20289;-92
2022/06/20 08:31:44;;;;;;;8.95;3.17;;;15.10;99.90;;;;;;5015483;28;20183;-93
2022/06/20 08:34:16;;;;;;;7.35;2.85;;;15.10;99.90;;;;;;5015753;28;20171;-93
2022/06/20 08:36:50;;;;;;;9.35;3.15;;;15.10;99.90;;;;;;5016149;28;20543;-89
2022/06/20 08:39:33;;;;;;;8.90;3.03;;;15.10;99.90;;;;;;5015914;28;20210;-91
2022/06/20 08:42:16;;;;;;;4.15;2.60;;;15.20;99.90;;;;;;5015585;28;20231;-91
2022/06/20 08:45:07;;;;;;;7.55;3.13;;;15.10;99.90;;;;;;5015558;28;20255;-89
2022/06/20 08:47:48;;;;;;;8.98;3.00;;;15.10;99.90;;;;;;5014587;28;20179;-89
2022/06/20 08:50:35;;;;;;;5.63;2.75;;;15.10;99.90;;;;;;5015594;28;20266;-90
2022/06/20 08:53:26;;;;;;;10.00;3.42;;;15.10;99.90;;;;;;5015227;28;20680;-93
2022/06/20 08:56:14;;;;;;;6.07;3.00;;;15.10;99.90;;;;;;5016704;28;20163;-93
2022/06/20 08:58:43;;;;;;;9.70;3.30;;;15.00;99.90;;;;;;5015421;28;20624;-92
2022/06/20 09:01:43;;;;;;;10.38;3.25;;;15.00;99.90;;;;;;5015750;28;20187;-93
2022/06/20 09:04:35;;;;;;;8.40;2.85;;;14.90;99.90;;;;;;5015187;28;20290;-94
2022/06/20 09:07:29;;;;;;;5.60;2.78;;;15.00;99.90;;;;;;4995406;28;20200;-93
2022/06/20 09:10:13;;;;;;;14.07;2.97;;;15.00;99.90;;;;;;4995692;28;20239;-91
2022/06/20 09:12:38;;;;;;;10.07;2.75;;;15.10;99.90;;;;;;4994191;28;20262;-92
2022/06/20 09:15:26;;;;;;;6.45;2.92;;;15.10;99.90;;;;;;4995078;28;20590;-93
2022/06/20 09:18:29;;;;;;;5.50;2.42;;;15.10;99.90;;;;;;4996439;28;20167;-90
2022/06/20 09:21:03;;;;;;;11.52;3.00;;;15.20;99.90;;;;;;4994718;28;20198;-90
2022/06/20 09:23:41;;;;;;;8.88;2.80;;;15.20;99.90;;;;;;4994956;28;20179;-92
2022/06/20 09:26:15;;;;;;;10.00;2.58;;;15.30;99.90;;;;;;5014487;28;20190;-91
2022/06/20 09:29:07;;;;;;;9.07;2.22;;;15.40;99.90;;;;;;5014719;28;20321;-90
2022/06/20 09:32:09;;;;;;;7.07;2.50;;;15.50;99.90;;;;;;5015509;28;20186;-92
2022/06/20 09:34:37;;;;;;;9.43;2.80;;;15.70;99.90;;;;;;5017166;28;20171;-94
2022/06/20 09:37:23;;;;;;;9.07;2.92;;;15.80;99.90;;;;;;5016947;28;20588;-93
2022/06/20 09:40:00;;;;;;;11.75;3.63;;;15.90;99.90;;;;;;5017595;28;20237;-92
2022/06/20 09:42:52;;;;;;;15.00;3.97;;;16.00;99.90;;;;;;5017470;28;20269;-93
2022/06/20 09:45:38;;;;;;;7.75;2.40;;;16.30;99.90;;;;;;5015900;28;20636;-91
2022/06/20 09:48:18;;;;;;;10.80;2.95;;;16.30;99.90;;;;;;5015503;28;20270;-92
2022/06/20 09:50:59;;;;;;;7.90;2.75;;;16.40;99.90;;;;;;5004316;28;20164;-92
2022/06/20 09:53:32;;;;;;;7.78;2.50;;;16.30;99.90;;;;;;5003322;28;20262;-91
2022/06/20 09:56:27;;;;;;;8.27;2.47;;;16.30;99.90;;;;;;5011626;28;20175;-90
2022/06/20 09:59:35;;;;;;;11.93;2.80;;;16.30;99.90;;;;;;5015217;28;20206;-88
2022/06/20 10:02:29;;;;;;;9.68;2.80;;;16.30;99.90;;;;;;5014294;28;20230;-87
2022/06/20 10:05:05;;;;;;;7.60;2.30;;;16.30;99.90;;;;;;5014657;28;20237;-88
2022/06/20 10:07:50;;;;;;;8.48;2.22;;;16.40;99.90;;;;;;5015812;28;20246;-86
2022/06/20 10:10:38;;;;;;;6.25;2.03;;;16.40;99.90;;;;;;5014748;28;20286;-86
2022/06/20 10:13:45;;;;;;;7.75;2.05;;;16.30;99.90;;;;;;5014634;28;20207;-88
2022/06/20 10:16:22;;;;;;;10.05;2.63;;;16.40;99.90;;;;;;5014527;28;20201;-88
2022/06/20 10:19:10;;;;;;;7.80;2.17;;;16.40;99.90;;;;;;5014260;28;20174;-88
2022/06/20 10:22:01;;;;;;;9.02;2.30;;;16.50;99.90;;;;;;5014578;28;20261;-87
2022/06/20 10:24:48;;;;;;;8.48;2.08;;;16.50;99.90;;;;;;5014286;28;20178;-88
2022/06/20 10:27:47;;;;;;;16.60;2.40;;;16.50;99.90;;;;;;5013807;28;20214;-89
2022/06/20 10:30:30;;;;;;;5.93;2.35;;;16.50;99.90;;;;;;5015521;28;20183;-87
2022/06/20 10:33:05;;;;;;;8.15;2.55;;;16.80;99.90;;;;;;5003795;28;20204;-85
2022/06/20 10:35:49;;;;;;;8.90;3.00;;;17.20;99.90;;;;;;4995592;28;20636;-89
2022/06/20 10:38:30;;;;;;;8.82;2.22;;;17.60;99.90;;;;;;4994833;28;20180;-90
2022/06/20 10:41:38;;;;;;;8.40;2.50;;;18.00;99.90;;;;;;5008044;28;20591;-90
2022/06/20 10:44:17;;;;;;;10.65;2.92;;;18.40;99.90;;;;;;5015083;28;20171;-93
2022/06/20 10:46:49;;;;;;;7.25;2.40;;;18.50;99.90;;;;;;5017296;28;20179;-95
2022/06/20 10:49:30;;;;;;;7.75;2.30;;;18.60;99.90;;;;;;5015174;28;20278;-90
2022/06/20 10:52:18;;;;;;;10.23;2.58;;;18.60;99.90;;;;;;5013159;28;20266;-93
2022/06/20 10:55:18;;;;;;;5.82;2.15;;;18.40;99.90;;;;;;4988413;28;20239;-91
2022/06/20 10:57:54;;;;;;;11.07;2.60;;;18.20;99.90;;;;;;5032244;28;20171;-94
2022/06/20 11:00:24;;;;;;;9.45;2.38;;;18.00;99.90;;;;;;5009078;28;20178;-94
2022/06/20 11:03:19;;;;;;;13.73;2.88;;;17.90;99.90;;;;;;5014567;28;20168;-94
2022/06/20 11:06:10;;;;;;;6.72;2.13;;;17.80;99.90;;;;;;5009618;28;20258;-94
2022/06/20 11:08:48;;;;;;;6.32;2.75;;;17.70;99.90;;;;;;5001790;28;20235;-94
2022/06/20 11:11:33;;;;;;;9.88;2.28;;;17.90;99.90;;;;;;5018543;28;20175;-93
2022/06/20 11:14:09;;;;;;;6.30;2.25;;;18.00;99.90;;;;;;5016727;28;20210;-92
2022/06/20 11:16:48;;;;;;;9.80;2.28;;;18.00;99.90;;;;;;5016844;28;20206;-94
2022/06/20 11:19:48;;;;;;;6.75;1.92;;;18.20;99.90;;;;;;5012023;28;20186;-96
2022/06/20 11:22:26;;;;;;;9.00;2.38;;;18.40;99.90;;;;;;4998459;28;20180;-90
2022/06/20 11:25:19;;;;;;;7.38;2.25;;;18.80;99.90;;;;;;5003359;28;20179;-93
2022/06/20 11:27:58;;;;;;;7.40;1.90;;;19.00;99.90;;;;;;5016240;28;20206;-96
2022/06/20 11:30:49;;;;;;;7.03;1.80;;;19.10;99.90;;;;;;5015772;28;20183;-92
2022/06/20 11:34:02;;;;;;;7.28;1.90;;;19.00;99.90;;;;;;5018036;28;20248;-95
2022/06/20 11:37:07;;;;;;;9.68;2.40;;;18.80;99.90;;;;;;5004083;28;20179;-90
2022/06/20 11:39:48;;;;;;;5.65;1.90;;;18.50;99.90;;;;;;5005061;28;20187;-94
2022/06/20 11:42:19;;;;;;;4.25;1.55;;;18.20;99.90;;;;;;4998018;28;20176;-94
2022/06/20 11:44:51;;;;;;;2.70;1.33;;;18.10;99.90;;;;;;4998435;28;20619;-94
2022/06/20 11:47:20;;;;;;;5.10;1.80;;;18.20;99.90;;;;;;4997781;28;20250;-92
2022/06/20 11:50:38;;;;;;;5.90;1.50;;;18.40;99.90;;;;;;4997457;28;20522;-95
2022/06/20 11:53:32;;;;;;;4.20;1.80;;;18.60;99.90;;;;;;4981646;28;20226;-94
2022/06/20 11:56:20;;;;;;;4.28;1.08;;;18.70;99.90;;;;;;5001827;28;20187;-87
2022/06/20 11:59:30;;;;;;;4.05;1.17;;;18.70;99.90;;;;;;5016963;28;20177;-89
2022/06/20 12:02:25;;;;;;;4.70;1.15;;;18.60;99.90;;;;;;5009015;28;20553;-90
2022/06/20 12:05:24;;;;;;;4.70;1.23;;;18.40;99.90;;;;;;5011540;28;20179;-92
2022/06/20 12:07:55;;;;;;;4.63;1.17;;;18.30;99.90;;;;;;4997347;28;20267;-91
2022/06/20 12:10:31;;;;;;;4.50;1.40;;;18.20;99.90;;;;;;5004923;28;20271;-90
2022/06/20 12:13:19;;;;;;;2.25;0.98;;;18.20;99.90;;;;;;4997333;28;20254;-89
2022/06/20 12:15:49;;;;;;;5.55;1.48;;;18.50;99.90;;;;;;4997720;28;20172;-90
2022/06/20 12:18:34;;;;;;;6.55;1.40;;;19.10;99.90;;;;;;5017461;28;20692;-90
2022/06/20 12:23:59;;;;;;;4.32;1.33;;;20.10;99.90;;;;;;5017524;28;20253;-87
2022/06/20 12:26:39;;;;;;;4.75;1.20;;;20.30;99.90;;;;;;4996716;28;20196;-88
2022/06/20 12:29:14;;;;;;;4.63;1.20;;;20.40;99.90;;;;;;4997091;28;20184;-91
2022/06/20 12:31:44;;;;;;;4.15;1.25;;;20.60;99.80;;;;;;4996849;28;20211;-88
2022/06/20 12:34:55;;;;;;;5.85;1.15;;;20.80;99.90;;;;;;4997078;28;20195;-87
2022/06/20 12:37:32;;;;;;;2.88;1.00;;;21.10;95.30;;;;;;4957415;29;20177;-90
2022/06/20 12:40:21;;;;;;;3.50;1.33;;;21.20;95.30;;;;;;4993291;28;20206;-92
2022/06/20 12:43:06;;;;;;;7.47;1.20;;;21.30;95.40;;;;;;5016622;28;20164;-89
2022/06/20 12:46:00;;;;;;;7.20;1.13;;;21.60;96.30;;;;;;5017395;28;20611;-88
2022/06/20 12:48:44;;;;;;;3.75;0.98;;;21.60;94.00;;;;;;5015939;28;20234;-89
2022/06/20 12:51:34;;;;;;;4.75;1.10;;;21.30;94.30;;;;;;5017246;28;20171;-88
2022/06/20 12:54:32;;;;;;;3.58;1.00;;;21.30;95.20;;;;;;5008242;28;20239;-90
2022/06/20 12:57:24;;;;;;;4.10;1.13;;;21.30;91.00;;;;;;5008911;28;20187;-86
2022/06/20 13:00:27;;;;;;;1.23;0.80;;;21.20;90.10;;;;;;5015506;28;20183;-88
2022/06/20 13:03:38;;;;;;;2.72;1.17;;;20.80;92.30;;;;;;5015324;28;20175;-87
2022/06/20 13:06:27;;;;;;;3.95;1.20;;;20.50;93.90;;;;;;5015775;28;20218;-86
2022/06/20 13:09:16;;;;;;;2.58;1.00;;;20.30;94.20;;;;;;5017428;28;20199;-86
2022/06/20 13:11:55;;;;;;;4.32;1.10;;;20.10;94.50;;;;;;5036530;28;20668;-90
2022/06/20 13:14:33;;;;;;;2.28;1.00;;;20.20;94.00;;;;;;5034744;28;20618;-87
2022/06/20 13:17:27;;;;;;;2.72;1.13;;;20.40;95.20;;;;;;5036267;28;20154;-89
2022/06/20 13:20:14;;;;;;;2.42;1.10;;;20.60;92.40;;;;;;5035203;28;20178;-86
2022/06/20 13:22:52;;;;;;;4.40;1.23;;;20.90;91.20;;;;;;5036025;28;20214;-87
2022/06/20 13:25:42;;;;;;;1.63;0.88;;;21.20;92.20;;;;;;5023126;28;20186;-86
2022/06/20 13:28:23;;;;;;;4.65;1.92;;;21.40;92.80;;;;;;5004190;28;20239;-88
2022/06/20 13:31:22;;;;;;;5.25;1.45;;;21.70;91.90;;;;;;5004720;28;20179;-87
2022/06/20 13:33:51;;;;;;;2.25;1.02;;;21.90;91.90;;;;;;4994608;28;20286;-86
2022/06/20 13:36:47;;;;;;;2.92;1.10;;;21.80;90.60;;;;;;4994562;28;20266;-86
2022/06/20 13:39:19;;;;;;;3.13;1.27;;;21.40;89.70;;;;;;4994550;28;20183;-88
2022/06/20 13:41:52;;;;;;;3.92;1.13;;;21.30;90.50;;;;;;4995203;28;20677;-86
2022/06/20 13:44:35;;;;;;;4.25;1.38;;;21.10;90.10;;;;;;5002541;28;20179;-85
2022/06/20 13:47:31;;;;;;;3.58;1.02;;;21.40;92.50;;;;;;5014124;28;20213;-88
2022/06/20 13:50:21;;;;;;;5.03;1.63;;;21.70;90.40;;;;;;5013790;28;20232;-89
2022/06/20 13:53:01;;;;;;;8.43;1.60;;;21.90;91.20;;;;;;4994451;28;20243;-85
2022/06/20 13:55:44;;;;;;;3.90;1.00;;;22.20;92.50;;;;;;5007024;28;20745;-85